sensor_id;sensor_type;location;lat;lon;timestamp;P1;durP1;ratioP1;P2;durP2;ratioP2
1545;SDS011;766;51.502;9.752;2023-08-01T00:00:41;7.00;;;5.35;;
1545;SDS011;766;51.502;9.752;2023-08-01T00:03:12;7.60;;;5.18;;
1545;SDS011;766;51.502;9.752;2023-08-01T00:05:43;7.60;;;4.72;;
1545;SDS011;766;51.502;9.752;2023-08-01T00:08:13;10.63;;;5.20;;
1545;SDS011;766;51.502;9.752;2023-08-01T00:10:47;10.80;;;5.30;;
1545;SDS011;766;51.502;9.752;2023-08-01T00:13:15;9.05;;;4.00;;
1545;SDS011;766;51.502;9.752;2023-08-01T00:15:44;6.45;;;3.63;;
1545;SDS011;766;51.502;9.752;2023-08-01T00:18:32;6.20;;;3.90;;
1545;SDS011;766;51.502;9.752;2023-08-01T00:21:06;6.60;;;3.67;;
1545;SDS011;766;51.502;9.752;2023-08-01T00:23:37;6.05;;;3.40;;
1545;SDS011;766;51.502;9.752;2023-08-01T00:26:09;6.95;;;3.05;;
1545;SDS011;766;51.502;9.752;2023-08-01T00:28:37;5.90;;;3.35;;
1545;SDS011;766;51.502;9.752;2023-08-01T00:31:07;4.40;;;3.22;;
1545;SDS011;766;51.502;9.752;2023-08-01T00:33:36;6.53;;;3.13;;
1545;SDS011;766;51.502;9.752;2023-08-01T00:36:07;4.50;;;2.92;;
1545;SDS011;766;51.502;9.752;2023-08-01T00:38:37;5.45;;;3.10;;
1545;SDS011;766;51.502;9.752;2023-08-01T00:41:09;6.55;;;2.88;;
1545;SDS011;766;51.502;9.752;2023-08-01T00:43:38;6.32;;;2.90;;
1545;SDS011;766;51.502;9.752;2023-08-01T00:46:08;4.82;;;3.53;;
1545;SDS011;766;51.502;9.752;2023-08-01T00:48:38;4.78;;;2.90;;
1545;SDS011;766;51.502;9.752;2023-08-01T00:51:11;4.88;;;2.90;;
1545;SDS011;766;51.502;9.752;2023-08-01T00:53:43;4.53;;;2.75;;
1545;SDS011;766;51.502;9.752;2023-08-01T00:56:21;4.13;;;2.60;;
1545;SDS011;766;51.502;9.752;2023-08-01T00:58:50;6.25;;;2.67;;
1545;SDS011;766;51.502;9.752;2023-08-01T01:01:21;5.70;;;3.20;;
1545;SDS011;766;51.502;9.752;2023-08-01T01:03:50;4.28;;;2.92;;
1545;SDS011;766;51.502;9.752;2023-08-01T01:06:23;4.03;;;2.50;;
1545;SDS011;766;51.502;9.752;2023-08-01T01:08:54;5.28;;;2.70;;
1545;SDS011;766;51.502;9.752;2023-08-01T01:11:28;7.00;;;2.90;;
1545;SDS011;766;51.502;9.752;2023-08-01T01:14:00;5.13;;;2.83;;
1545;SDS011;766;51.502;9.752;2023-08-01T01:16:28;4.80;;;2.90;;
1545;SDS011;766;51.502;9.752;2023-08-01T01:18:58;6.50;;;2.75;;
1545;SDS011;766;51.502;9.752;2023-08-01T01:21:29;5.85;;;2.45;;
1545;SDS011;766;51.502;9.752;2023-08-01T01:24:02;6.47;;;2.80;;
1545;SDS011;766;51.502;9.752;2023-08-01T01:26:34;6.18;;;2.65;;
1545;SDS011;766;51.502;9.752;2023-08-01T01:29:07;8.75;;;3.53;;
1545;SDS011;766;51.502;9.752;2023-08-01T01:31:38;6.32;;;3.03;;
1545;SDS011;766;51.502;9.752;2023-08-01T01:34:07;5.90;;;3.08;;
1545;SDS011;766;51.502;9.752;2023-08-01T01:36:41;5.28;;;3.10;;
1545;SDS011;766;51.502;9.752;2023-08-01T01:39:13;5.72;;;2.83;;
1545;SDS011;766;51.502;9.752;2023-08-01T01:41:41;4.35;;;2.80;;
1545;SDS011;766;51.502;9.752;2023-08-01T01:44:11;4.00;;;2.97;;
1545;SDS011;766;51.502;9.752;2023-08-01T01:46:40;5.53;;;3.03;;
1545;SDS011;766;51.502;9.752;2023-08-01T01:49:12;6.13;;;3.00;;
1545;SDS011;766;51.502;9.752;2023-08-01T01:51:42;5.80;;;3.20;;
1545;SDS011;766;51.502;9.752;2023-08-01T01:54:10;5.15;;;3.10;;
1545;SDS011;766;51.502;9.752;2023-08-01T01:56:42;6.10;;;3.10;;
1545;SDS011;766;51.502;9.752;2023-08-01T01:59:12;8.68;;;3.70;;
1545;SDS011;766;51.502;9.752;2023-08-01T02:01:46;9.10;;;3.45;;
1545;SDS011;766;51.502;9.752;2023-08-01T02:04:15;6.07;;;3.50;;
1545;SDS011;766;51.502;9.752;2023-08-01T02:06:46;5.18;;;2.97;;
1545;SDS011;766;51.502;9.752;2023-08-01T02:09:16;3.20;;;2.30;;
1545;SDS011;766;51.502;9.752;2023-08-01T02:11:44;6.32;;;2.80;;
1545;SDS011;766;51.502;9.752;2023-08-01T02:14:15;7.30;;;2.90;;
1545;SDS011;766;51.502;9.752;2023-08-01T02:16:44;5.70;;;3.10;;
1545;SDS011;766;51.502;9.752;2023-08-01T02:19:13;6.20;;;2.60;;
1545;SDS011;766;51.502;9.752;2023-08-01T02:21:44;6.55;;;2.95;;
1545;SDS011;766;51.502;9.752;2023-08-01T02:24:14;4.80;;;2.40;;
1545;SDS011;766;51.502;9.752;2023-08-01T02:26:44;4.88;;;2.83;;
1545;SDS011;766;51.502;9.752;2023-08-01T02:29:18;4.88;;;2.88;;
1545;SDS011;766;51.502;9.752;2023-08-01T02:31:50;4.60;;;2.58;;
1545;SDS011;766;51.502;9.752;2023-08-01T02:34:18;6.00;;;2.38;;
1545;SDS011;766;51.502;9.752;2023-08-01T02:36:52;3.78;;;2.22;;
1545;SDS011;766;51.502;9.752;2023-08-01T02:39:20;2.75;;;1.88;;
1545;SDS011;766;51.502;9.752;2023-08-01T02:41:52;4.25;;;2.30;;
1545;SDS011;766;51.502;9.752;2023-08-01T02:44:20;3.97;;;2.33;;
1545;SDS011;766;51.502;9.752;2023-08-01T02:46:48;2.67;;;1.92;;
1545;SDS011;766;51.502;9.752;2023-08-01T02:49:17;5.97;;;2.15;;
1545;SDS011;766;51.502;9.752;2023-08-01T02:51:48;2.72;;;2.03;;
1545;SDS011;766;51.502;9.752;2023-08-01T02:54:18;2.33;;;1.90;;
1545;SDS011;766;51.502;9.752;2023-08-01T02:56:47;2.70;;;2.05;;
1545;SDS011;766;51.502;9.752;2023-08-01T02:59:16;1.88;;;1.70;;
1545;SDS011;766;51.502;9.752;2023-08-01T03:01:47;3.03;;;1.83;;
1545;SDS011;766;51.502;9.752;2023-08-01T03:04:17;1.70;;;1.45;;
1545;SDS011;766;51.502;9.752;2023-08-01T03:06:57;1.65;;;1.50;;
1545;SDS011;766;51.502;9.752;2023-08-01T03:09:30;3.50;;;1.20;;
1545;SDS011;766;51.502;9.752;2023-08-01T03:12:00;1.20;;;1.10;;
1545;SDS011;766;51.502;9.752;2023-08-01T03:14:31;1.70;;;1.17;;
1545;SDS011;766;51.502;9.752;2023-08-01T03:17:03;2.40;;;1.13;;
1545;SDS011;766;51.502;9.752;2023-08-01T03:19:32;1.40;;;0.80;;
1545;SDS011;766;51.502;9.752;2023-08-01T03:22:01;0.50;;;0.50;;
1545;SDS011;766;51.502;9.752;2023-08-01T03:24:31;0.68;;;0.60;;
1545;SDS011;766;51.502;9.752;2023-08-01T03:27:02;2.70;;;0.60;;
1545;SDS011;766;51.502;9.752;2023-08-01T03:29:31;0.55;;;0.55;;
1545;SDS011;766;51.502;9.752;2023-08-01T03:32:00;0.70;;;0.60;;
1545;SDS011;766;51.502;9.752;2023-08-01T03:34:32;0.57;;;0.57;;
1545;SDS011;766;51.502;9.752;2023-08-01T03:37:03;0.85;;;0.60;;
1545;SDS011;766;51.502;9.752;2023-08-01T03:39:33;1.02;;;0.52;;
1545;SDS011;766;51.502;9.752;2023-08-01T03:42:02;0.60;;;0.60;;
1545;SDS011;766;51.502;9.752;2023-08-01T03:44:31;0.60;;;0.50;;
1545;SDS011;766;51.502;9.752;2023-08-01T03:47:00;0.85;;;0.60;;
1545;SDS011;766;51.502;9.752;2023-08-01T03:49:42;1.10;;;0.80;;
1545;SDS011;766;51.502;9.752;2023-08-01T03:52:13;0.52;;;0.50;;
1545;SDS011;766;51.502;9.752;2023-08-01T03:54:43;0.85;;;0.80;;
1545;SDS011;766;51.502;9.752;2023-08-01T03:57:12;3.60;;;0.88;;
1545;SDS011;766;51.502;9.752;2023-08-01T03:59:40;1.05;;;0.50;;
1545;SDS011;766;51.502;9.752;2023-08-01T04:02:10;1.75;;;0.50;;
1545;SDS011;766;51.502;9.752;2023-08-01T04:04:38;0.85;;;0.73;;
1545;SDS011;766;51.502;9.752;2023-08-01T04:07:07;1.98;;;0.60;;
1545;SDS011;766;51.502;9.752;2023-08-01T04:09:36;0.73;;;0.60;;
1545;SDS011;766;51.502;9.752;2023-08-01T04:12:09;2.15;;;0.70;;
1545;SDS011;766;51.502;9.752;2023-08-01T04:14:42;1.75;;;0.52;;
1545;SDS011;766;51.502;9.752;2023-08-01T04:17:10;1.80;;;0.50;;
1545;SDS011;766;51.502;9.752;2023-08-01T04:19:39;2.25;;;0.70;;
1545;SDS011;766;51.502;9.752;2023-08-01T04:22:07;1.52;;;0.60;;
1545;SDS011;766;51.502;9.752;2023-08-01T04:24:39;0.80;;;0.68;;
1545;SDS011;766;51.502;9.752;2023-08-01T04:27:20;1.48;;;0.68;;
1545;SDS011;766;51.502;9.752;2023-08-01T04:29:48;1.83;;;0.65;;
1545;SDS011;766;51.502;9.752;2023-08-01T04:32:20;0.60;;;0.50;;
1545;SDS011;766;51.502;9.752;2023-08-01T04:34:49;2.70;;;0.52;;
1545;SDS011;766;51.502;9.752;2023-08-01T04:37:18;2.17;;;0.70;;
1545;SDS011;766;51.502;9.752;2023-08-01T04:39:49;1.15;;;0.60;;
1545;SDS011;766;51.502;9.752;2023-08-01T04:42:19;0.65;;;0.50;;
1545;SDS011;766;51.502;9.752;2023-08-01T04:44:50;0.93;;;0.57;;
1545;SDS011;766;51.502;9.752;2023-08-01T04:47:18;1.08;;;0.80;;
1545;SDS011;766;51.502;9.752;2023-08-01T04:49:53;1.77;;;0.70;;
1545;SDS011;766;51.502;9.752;2023-08-01T04:52:22;1.20;;;0.65;;
1545;SDS011;766;51.502;9.752;2023-08-01T04:54:56;2.25;;;0.82;;
1545;SDS011;766;51.502;9.752;2023-08-01T04:57:29;3.78;;;0.77;;
1545;SDS011;766;51.502;9.752;2023-08-01T05:00:04;2.15;;;0.70;;
1545;SDS011;766;51.502;9.752;2023-08-01T05:02:33;1.23;;;0.60;;
1545;SDS011;766;51.502;9.752;2023-08-01T05:05:01;0.98;;;0.60;;
1545;SDS011;766;51.502;9.752;2023-08-01T05:07:32;0.85;;;0.60;;
1545;SDS011;766;51.502;9.752;2023-08-01T05:10:01;0.73;;;0.60;;
1545;SDS011;766;51.502;9.752;2023-08-01T05:12:34;0.60;;;0.50;;
1545;SDS011;766;51.502;9.752;2023-08-01T05:15:08;2.03;;;0.52;;
1545;SDS011;766;51.502;9.752;2023-08-01T05:17:36;0.43;;;0.43;;
1545;SDS011;766;51.502;9.752;2023-08-01T05:20:06;1.77;;;0.45;;
1545;SDS011;766;51.502;9.752;2023-08-01T05:22:37;0.60;;;0.60;;
1545;SDS011;766;51.502;9.752;2023-08-01T05:25:06;2.95;;;1.00;;
1545;SDS011;766;51.502;9.752;2023-08-01T05:27:37;0.68;;;0.60;;
1545;SDS011;766;51.502;9.752;2023-08-01T05:30:06;1.17;;;0.80;;
1545;SDS011;766;51.502;9.752;2023-08-01T05:32:37;2.03;;;0.93;;
1545;SDS011;766;51.502;9.752;2023-08-01T05:35:13;2.17;;;0.90;;
1545;SDS011;766;51.502;9.752;2023-08-01T05:37:41;3.78;;;0.90;;
1545;SDS011;766;51.502;9.752;2023-08-01T05:40:11;0.50;;;0.50;;
1545;SDS011;766;51.502;9.752;2023-08-01T05:42:41;1.98;;;0.57;;
1545;SDS011;766;51.502;9.752;2023-08-01T05:45:10;2.50;;;0.50;;
1545;SDS011;766;51.502;9.752;2023-08-01T05:47:39;0.70;;;0.50;;
1545;SDS011;766;51.502;9.752;2023-08-01T05:50:09;11.70;;;0.73;;
1545;SDS011;766;51.502;9.752;2023-08-01T05:52:40;0.50;;;0.50;;
1545;SDS011;766;51.502;9.752;2023-08-01T05:55:09;5.90;;;0.40;;
1545;SDS011;766;51.502;9.752;2023-08-01T05:57:38;0.30;;;0.30;;
1545;SDS011;766;51.502;9.752;2023-08-01T06:00:11;4.40;;;0.70;;
1545;SDS011;766;51.502;9.752;2023-08-01T06:02:41;0.40;;;0.40;;
1545;SDS011;766;51.502;9.752;2023-08-01T06:05:10;2.05;;;0.50;;
1545;SDS011;766;51.502;9.752;2023-08-01T06:07:38;0.85;;;0.43;;
1545;SDS011;766;51.502;9.752;2023-08-01T06:10:08;0.63;;;0.35;;
1545;SDS011;766;51.502;9.752;2023-08-01T06:12:36;0.88;;;0.50;;
1545;SDS011;766;51.502;9.752;2023-08-01T06:15:06;0.60;;;0.52;;
1545;SDS011;766;51.502;9.752;2023-08-01T06:17:36;1.13;;;0.77;;
1545;SDS011;766;51.502;9.752;2023-08-01T06:20:05;1.88;;;1.00;;
1545;SDS011;766;51.502;9.752;2023-08-01T06:22:35;1.55;;;1.13;;
1545;SDS011;766;51.502;9.752;2023-08-01T06:25:06;3.53;;;1.48;;
1545;SDS011;766;51.502;9.752;2023-08-01T06:27:35;1.83;;;1.23;;
1545;SDS011;766;51.502;9.752;2023-08-01T06:30:05;1.63;;;1.20;;
1545;SDS011;766;51.502;9.752;2023-08-01T06:32:37;3.38;;;1.10;;
1545;SDS011;766;51.502;9.752;2023-08-01T06:35:06;1.55;;;1.45;;
1545;SDS011;766;51.502;9.752;2023-08-01T06:37:35;2.08;;;1.58;;
1545;SDS011;766;51.502;9.752;2023-08-01T06:40:06;2.92;;;1.65;;
1545;SDS011;766;51.502;9.752;2023-08-01T06:42:35;3.88;;;1.50;;
1545;SDS011;766;51.502;9.752;2023-08-01T06:45:05;2.60;;;1.73;;
1545;SDS011;766;51.502;9.752;2023-08-01T06:47:34;2.33;;;1.92;;
1545;SDS011;766;51.502;9.752;2023-08-01T06:50:04;2.15;;;1.98;;
1545;SDS011;766;51.502;9.752;2023-08-01T06:52:32;2.00;;;1.90;;
1545;SDS011;766;51.502;9.752;2023-08-01T06:55:04;2.10;;;1.80;;
1545;SDS011;766;51.502;9.752;2023-08-01T06:57:33;2.10;;;1.90;;
1545;SDS011;766;51.502;9.752;2023-08-01T07:00:04;2.90;;;2.60;;
1545;SDS011;766;51.502;9.752;2023-08-01T07:02:33;6.45;;;3.15;;
1545;SDS011;766;51.502;9.752;2023-08-01T07:05:04;3.30;;;3.00;;
1545;SDS011;766;51.502;9.752;2023-08-01T07:07:33;4.82;;;4.20;;
1545;SDS011;766;51.502;9.752;2023-08-01T07:10:02;5.85;;;5.25;;
1545;SDS011;766;51.502;9.752;2023-08-01T07:12:32;6.82;;;5.75;;
1545;SDS011;766;51.502;9.752;2023-08-01T07:15:00;8.65;;;6.22;;
1545;SDS011;766;51.502;9.752;2023-08-01T07:17:29;8.55;;;7.18;;
1545;SDS011;766;51.502;9.752;2023-08-01T07:19:59;9.57;;;7.97;;
1545;SDS011;766;51.502;9.752;2023-08-01T07:22:29;13.40;;;8.23;;
1545;SDS011;766;51.502;9.752;2023-08-01T07:25:03;12.15;;;8.77;;
1545;SDS011;766;51.502;9.752;2023-08-01T07:27:32;11.38;;;9.48;;
1545;SDS011;766;51.502;9.752;2023-08-01T07:30:01;10.70;;;8.40;;
1545;SDS011;766;51.502;9.752;2023-08-01T07:32:32;13.70;;;10.05;;
1545;SDS011;766;51.502;9.752;2023-08-01T07:35:05;9.90;;;8.30;;
1545;SDS011;766;51.502;9.752;2023-08-01T07:37:37;15.23;;;9.40;;
1545;SDS011;766;51.502;9.752;2023-08-01T07:40:07;10.68;;;8.82;;
1545;SDS011;766;51.502;9.752;2023-08-01T07:42:36;11.18;;;8.43;;
1545;SDS011;766;51.502;9.752;2023-08-01T07:45:05;13.05;;;9.15;;
1545;SDS011;766;51.502;9.752;2023-08-01T07:47:33;14.48;;;8.52;;
1545;SDS011;766;51.502;9.752;2023-08-01T07:50:02;10.93;;;8.63;;
1545;SDS011;766;51.502;9.752;2023-08-01T07:52:32;8.10;;;6.93;;
1545;SDS011;766;51.502;9.752;2023-08-01T07:55:03;11.20;;;6.82;;
1545;SDS011;766;51.502;9.752;2023-08-01T07:57:32;9.55;;;6.47;;
1545;SDS011;766;51.502;9.752;2023-08-01T08:00:01;8.52;;;6.75;;
1545;SDS011;766;51.502;9.752;2023-08-01T08:02:30;9.07;;;6.45;;
1545;SDS011;766;51.502;9.752;2023-08-01T08:04:59;9.13;;;6.15;;
1545;SDS011;766;51.502;9.752;2023-08-01T08:07:30;8.75;;;6.45;;
1545;SDS011;766;51.502;9.752;2023-08-01T08:10:03;9.93;;;5.20;;
1545;SDS011;766;51.502;9.752;2023-08-01T08:12:32;6.35;;;5.75;;
1545;SDS011;766;51.502;9.752;2023-08-01T08:15:03;7.25;;;5.35;;
1545;SDS011;766;51.502;9.752;2023-08-01T08:17:33;7.40;;;5.18;;
1545;SDS011;766;51.502;9.752;2023-08-01T08:20:05;6.03;;;4.70;;
1545;SDS011;766;51.502;9.752;2023-08-01T08:22:34;6.25;;;4.90;;
1545;SDS011;766;51.502;9.752;2023-08-01T08:25:06;5.90;;;5.05;;
1545;SDS011;766;51.502;9.752;2023-08-01T08:27:40;8.65;;;5.20;;
1545;SDS011;766;51.502;9.752;2023-08-01T08:30:11;6.63;;;5.10;;
1545;SDS011;766;51.502;9.752;2023-08-01T08:32:44;9.00;;;5.78;;
1545;SDS011;766;51.502;9.752;2023-08-01T08:35:12;8.05;;;6.03;;
1545;SDS011;766;51.502;9.752;2023-08-01T08:37:55;11.02;;;6.97;;
1545;SDS011;766;51.502;9.752;2023-08-01T08:40:27;7.70;;;6.13;;
1545;SDS011;766;51.502;9.752;2023-08-01T08:43:02;6.03;;;5.20;;
1545;SDS011;766;51.502;9.752;2023-08-01T08:45:32;6.88;;;5.32;;
1545;SDS011;766;51.502;9.752;2023-08-01T08:48:03;6.70;;;5.10;;
1545;SDS011;766;51.502;9.752;2023-08-01T08:50:32;8.35;;;5.60;;
1545;SDS011;766;51.502;9.752;2023-08-01T08:53:06;8.00;;;5.97;;
1545;SDS011;766;51.502;9.752;2023-08-01T08:55:42;7.30;;;6.05;;
1545;SDS011;766;51.502;9.752;2023-08-01T08:58:14;10.07;;;6.93;;
1545;SDS011;766;51.502;9.752;2023-08-01T09:00:46;10.90;;;6.75;;
1545;SDS011;766;51.502;9.752;2023-08-01T09:03:15;9.48;;;7.43;;
1545;SDS011;766;51.502;9.752;2023-08-01T09:05:48;10.02;;;7.95;;
1545;SDS011;766;51.502;9.752;2023-08-01T09:08:18;11.93;;;8.02;;
1545;SDS011;766;51.502;9.752;2023-08-01T09:13:36;12.10;;;10.00;;
1545;SDS011;766;51.502;9.752;2023-08-01T09:16:09;12.90;;;9.45;;
1545;SDS011;766;51.502;9.752;2023-08-01T09:18:50;12.20;;;10.55;;
1545;SDS011;766;51.502;9.752;2023-08-01T09:21:21;16.17;;;10.43;;
1545;SDS011;766;51.502;9.752;2023-08-01T09:23:50;10.98;;;9.60;;
1545;SDS011;766;51.502;9.752;2023-08-01T09:26:24;13.02;;;9.27;;
1545;SDS011;766;51.502;9.752;2023-08-01T09:28:59;10.15;;;8.68;;
1545;SDS011;766;51.502;9.752;2023-08-01T09:31:28;13.35;;;8.80;;
1545;SDS011;766;51.502;9.752;2023-08-01T09:33:57;13.38;;;8.63;;
1545;SDS011;766;51.502;9.752;2023-08-01T09:36:32;12.13;;;7.63;;
1545;SDS011;766;51.502;9.752;2023-08-01T09:39:03;6.93;;;6.22;;
1545;SDS011;766;51.502;9.752;2023-08-01T09:41:40;8.35;;;5.57;;
1545;SDS011;766;51.502;9.752;2023-08-01T09:44:14;8.73;;;6.13;;
1545;SDS011;766;51.502;9.752;2023-08-01T09:46:44;11.25;;;7.00;;
1545;SDS011;766;51.502;9.752;2023-08-01T09:49:29;6.43;;;5.00;;
1545;SDS011;766;51.502;9.752;2023-08-01T09:51:58;7.25;;;5.38;;
1545;SDS011;766;51.502;9.752;2023-08-01T09:54:28;6.32;;;5.50;;
1545;SDS011;766;51.502;9.752;2023-08-01T09:56:59;5.93;;;5.35;;
1545;SDS011;766;51.502;9.752;2023-08-01T09:59:34;7.95;;;5.55;;
1545;SDS011;766;51.502;9.752;2023-08-01T10:02:04;8.88;;;6.00;;
1545;SDS011;766;51.502;9.752;2023-08-01T10:04:33;7.82;;;6.05;;
1545;SDS011;766;51.502;9.752;2023-08-01T10:07:03;8.55;;;5.80;;
1545;SDS011;766;51.502;9.752;2023-08-01T10:09:34;5.72;;;4.72;;
1545;SDS011;766;51.502;9.752;2023-08-01T10:12:07;7.57;;;5.50;;
1545;SDS011;766;51.502;9.752;2023-08-01T10:14:38;6.38;;;5.40;;
1545;SDS011;766;51.502;9.752;2023-08-01T10:17:09;9.70;;;5.28;;
1545;SDS011;766;51.502;9.752;2023-08-01T10:19:39;6.25;;;4.15;;
1545;SDS011;766;51.502;9.752;2023-08-01T10:22:09;7.60;;;4.45;;
1545;SDS011;766;51.502;9.752;2023-08-01T10:24:41;5.63;;;4.68;;
1545;SDS011;766;51.502;9.752;2023-08-01T10:27:13;5.47;;;4.10;;
1545;SDS011;766;51.502;9.752;2023-08-01T10:29:44;8.30;;;4.35;;
1545;SDS011;766;51.502;9.752;2023-08-01T10:32:12;7.38;;;3.85;;
1545;SDS011;766;51.502;9.752;2023-08-01T10:34:50;7.65;;;4.40;;
1545;SDS011;766;51.502;9.752;2023-08-01T10:37:22;5.85;;;4.45;;
1545;SDS011;766;51.502;9.752;2023-08-01T10:39:56;6.47;;;3.63;;
1545;SDS011;766;51.502;9.752;2023-08-01T10:42:25;10.80;;;3.45;;
1545;SDS011;766;51.502;9.752;2023-08-01T10:44:57;5.25;;;3.20;;
1545;SDS011;766;51.502;9.752;2023-08-01T10:47:28;5.30;;;3.00;;
1545;SDS011;766;51.502;9.752;2023-08-01T10:50:12;4.65;;;2.95;;
1545;SDS011;766;51.502;9.752;2023-08-01T10:52:43;4.50;;;2.97;;
1545;SDS011;766;51.502;9.752;2023-08-01T10:55:14;7.43;;;3.60;;
1545;SDS011;766;51.502;9.752;2023-08-01T10:57:47;4.85;;;3.28;;
1545;SDS011;766;51.502;9.752;2023-08-01T11:00:18;5.72;;;3.67;;
1545;SDS011;766;51.502;9.752;2023-08-01T11:02:52;6.65;;;3.63;;
1545;SDS011;766;51.502;9.752;2023-08-01T11:05:26;9.85;;;3.65;;
1545;SDS011;766;51.502;9.752;2023-08-01T11:08:02;5.85;;;3.63;;
1545;SDS011;766;51.502;9.752;2023-08-01T11:10:34;7.20;;;3.42;;
1545;SDS011;766;51.502;9.752;2023-08-01T11:13:11;5.10;;;3.17;;
1545;SDS011;766;51.502;9.752;2023-08-01T11:15:44;5.75;;;3.53;;
1545;SDS011;766;51.502;9.752;2023-08-01T11:18:14;4.97;;;3.63;;
1545;SDS011;766;51.502;9.752;2023-08-01T11:20:53;4.45;;;3.60;;
1545;SDS011;766;51.502;9.752;2023-08-01T11:23:27;4.35;;;3.65;;
1545;SDS011;766;51.502;9.752;2023-08-01T11:26:06;3.88;;;3.40;;
1545;SDS011;766;51.502;9.752;2023-08-01T11:28:38;6.03;;;4.03;;
1545;SDS011;766;51.502;9.752;2023-08-01T11:31:12;3.47;;;3.15;;
1545;SDS011;766;51.502;9.752;2023-08-01T11:33:54;4.32;;;3.63;;
1545;SDS011;766;51.502;9.752;2023-08-01T11:36:36;4.88;;;3.22;;
1545;SDS011;766;51.502;9.752;2023-08-01T11:39:06;5.28;;;3.40;;
1545;SDS011;766;51.502;9.752;2023-08-01T11:41:34;3.10;;;2.72;;
1545;SDS011;766;51.502;9.752;2023-08-01T11:44:05;5.38;;;3.05;;
1545;SDS011;766;51.502;9.752;2023-08-01T11:46:36;4.22;;;3.08;;
1545;SDS011;766;51.502;9.752;2023-08-01T11:49:08;4.47;;;3.13;;
1545;SDS011;766;51.502;9.752;2023-08-01T11:51:40;7.25;;;3.15;;
1545;SDS011;766;51.502;9.752;2023-08-01T11:54:10;4.55;;;3.40;;
1545;SDS011;766;51.502;9.752;2023-08-01T11:56:40;6.22;;;3.25;;
1545;SDS011;766;51.502;9.752;2023-08-01T11:59:10;6.03;;;3.50;;
1545;SDS011;766;51.502;9.752;2023-08-01T12:01:40;3.15;;;2.75;;
1545;SDS011;766;51.502;9.752;2023-08-01T12:04:09;6.80;;;3.50;;
1545;SDS011;766;51.502;9.752;2023-08-01T12:06:37;7.00;;;3.10;;
1545;SDS011;766;51.502;9.752;2023-08-01T12:09:09;4.00;;;2.90;;
1545;SDS011;766;51.502;9.752;2023-08-01T12:11:38;4.40;;;2.83;;
1545;SDS011;766;51.502;9.752;2023-08-01T12:14:07;3.83;;;2.72;;
1545;SDS011;766;51.502;9.752;2023-08-01T12:16:37;4.57;;;2.88;;
1545;SDS011;766;51.502;9.752;2023-08-01T12:19:08;4.43;;;2.58;;
1545;SDS011;766;51.502;9.752;2023-08-01T12:21:37;5.57;;;3.00;;
1545;SDS011;766;51.502;9.752;2023-08-01T12:24:06;4.40;;;2.60;;
1545;SDS011;766;51.502;9.752;2023-08-01T12:26:34;4.68;;;2.88;;
1545;SDS011;766;51.502;9.752;2023-08-01T12:29:03;5.88;;;2.75;;
1545;SDS011;766;51.502;9.752;2023-08-01T12:31:34;4.32;;;2.70;;
1545;SDS011;766;51.502;9.752;2023-08-01T12:34:03;2.45;;;2.17;;
1545;SDS011;766;51.502;9.752;2023-08-01T12:36:32;3.47;;;1.83;;
1545;SDS011;766;51.502;9.752;2023-08-01T12:39:01;2.10;;;1.65;;
1545;SDS011;766;51.502;9.752;2023-08-01T12:41:30;3.05;;;1.80;;
1545;SDS011;766;51.502;9.752;2023-08-01T12:43:59;3.38;;;1.60;;
1545;SDS011;766;51.502;9.752;2023-08-01T12:46:27;4.00;;;2.00;;
1545;SDS011;766;51.502;9.752;2023-08-01T12:48:56;2.22;;;1.50;;
1545;SDS011;766;51.502;9.752;2023-08-01T12:51:32;2.38;;;1.70;;
1545;SDS011;766;51.502;9.752;2023-08-01T12:54:04;3.47;;;1.80;;
1545;SDS011;766;51.502;9.752;2023-08-01T12:56:36;3.55;;;1.90;;
1545;SDS011;766;51.502;9.752;2023-08-01T12:59:06;1.90;;;1.48;;
1545;SDS011;766;51.502;9.752;2023-08-01T13:01:35;3.97;;;1.90;;
1545;SDS011;766;51.502;9.752;2023-08-01T13:04:05;3.30;;;1.83;;
1545;SDS011;766;51.502;9.752;2023-08-01T13:06:39;2.05;;;1.77;;
1545;SDS011;766;51.502;9.752;2023-08-01T13:09:13;2.38;;;1.73;;
1545;SDS011;766;51.502;9.752;2023-08-01T13:13:52;2.53;;;2.00;;
1545;SDS011;766;51.502;9.752;2023-08-01T13:15:36;2.35;;;2.13;;
1545;SDS011;766;51.502;9.752;2023-08-01T13:18:45;3.95;;;1.95;;
1545;SDS011;766;51.502;9.752;2023-08-01T13:21:35;3.85;;;2.22;;
1545;SDS011;766;51.502;9.752;2023-08-01T13:24:05;6.63;;;2.35;;
1545;SDS011;766;51.502;9.752;2023-08-01T13:26:39;3.90;;;1.98;;
1545;SDS011;766;51.502;9.752;2023-08-01T13:29:12;3.88;;;1.83;;
1545;SDS011;766;51.502;9.752;2023-08-01T13:31:41;3.17;;;1.70;;
1545;SDS011;766;51.502;9.752;2023-08-01T13:34:16;5.32;;;1.83;;
1545;SDS011;766;51.502;9.752;2023-08-01T13:36:45;3.45;;;1.60;;
1545;SDS011;766;51.502;9.752;2023-08-01T13:39:14;5.13;;;1.67;;
1545;SDS011;766;51.502;9.752;2023-08-01T13:41:44;4.10;;;1.88;;
1545;SDS011;766;51.502;9.752;2023-08-01T13:44:14;2.53;;;1.77;;
1545;SDS011;766;51.502;9.752;2023-08-01T13:46:44;2.13;;;1.35;;
1545;SDS011;766;51.502;9.752;2023-08-01T13:49:18;2.40;;;1.58;;
1545;SDS011;766;51.502;9.752;2023-08-01T13:51:47;4.35;;;1.58;;
1545;SDS011;766;51.502;9.752;2023-08-01T13:54:37;4.47;;;1.90;;
1545;SDS011;766;51.502;9.752;2023-08-01T13:57:08;1.95;;;1.65;;
1545;SDS011;766;51.502;9.752;2023-08-01T13:59:37;6.55;;;1.70;;
1545;SDS011;766;51.502;9.752;2023-08-01T14:02:05;2.97;;;1.55;;
1545;SDS011;766;51.502;9.752;2023-08-01T14:04:35;3.58;;;1.60;;
1545;SDS011;766;51.502;9.752;2023-08-01T14:07:04;2.58;;;1.50;;
1545;SDS011;766;51.502;9.752;2023-08-01T14:09:33;4.03;;;1.75;;
1545;SDS011;766;51.502;9.752;2023-08-01T14:12:05;4.53;;;1.80;;
1545;SDS011;766;51.502;9.752;2023-08-01T14:14:37;5.78;;;1.92;;
1545;SDS011;766;51.502;9.752;2023-08-01T14:17:08;4.28;;;1.80;;
1545;SDS011;766;51.502;9.752;2023-08-01T14:19:40;2.15;;;1.63;;
1545;SDS011;766;51.502;9.752;2023-08-01T14:22:09;4.53;;;1.85;;
1545;SDS011;766;51.502;9.752;2023-08-01T14:24:48;3.38;;;1.45;;
1545;SDS011;766;51.502;9.752;2023-08-01T14:27:17;2.05;;;1.02;;
1545;SDS011;766;51.502;9.752;2023-08-01T14:29:47;1.45;;;1.08;;
1545;SDS011;766;51.502;9.752;2023-08-01T14:32:17;11.75;;;1.50;;
1545;SDS011;766;51.502;9.752;2023-08-01T14:34:48;2.50;;;1.30;;
1545;SDS011;766;51.502;9.752;2023-08-01T14:37:19;1.55;;;1.23;;
1545;SDS011;766;51.502;9.752;2023-08-01T14:43:39;3.58;;;0.95;;
1545;SDS011;766;51.502;9.752;2023-08-01T14:46:26;3.58;;;1.50;;
1545;SDS011;766;51.502;9.752;2023-08-01T14:48:54;2.83;;;0.98;;
1545;SDS011;766;51.502;9.752;2023-08-01T14:51:23;2.75;;;1.40;;
1545;SDS011;766;51.502;9.752;2023-08-01T14:53:51;2.70;;;1.38;;
1545;SDS011;766;51.502;9.752;2023-08-01T14:56:20;3.45;;;1.58;;
1545;SDS011;766;51.502;9.752;2023-08-01T14:58:59;1.80;;;1.50;;
1545;SDS011;766;51.502;9.752;2023-08-01T15:01:37;2.28;;;1.60;;
1545;SDS011;766;51.502;9.752;2023-08-01T15:04:12;3.67;;;1.40;;
1545;SDS011;766;51.502;9.752;2023-08-01T15:09:53;5.30;;;1.58;;
1545;SDS011;766;51.502;9.752;2023-08-01T15:12:22;4.45;;;1.60;;
1545;SDS011;766;51.502;9.752;2023-08-01T15:14:52;2.38;;;1.50;;
1545;SDS011;766;51.502;9.752;2023-08-01T15:17:22;3.75;;;1.40;;
1545;SDS011;766;51.502;9.752;2023-08-01T15:19:51;3.28;;;1.48;;
1545;SDS011;766;51.502;9.752;2023-08-01T15:22:22;4.53;;;1.60;;
1545;SDS011;766;51.502;9.752;2023-08-01T15:24:50;4.00;;;1.50;;
1545;SDS011;766;51.502;9.752;2023-08-01T15:27:19;2.83;;;1.60;;
1545;SDS011;766;51.502;9.752;2023-08-01T15:29:47;2.85;;;1.65;;
1545;SDS011;766;51.502;9.752;2023-08-01T15:32:16;2.22;;;1.70;;
1545;SDS011;766;51.502;9.752;2023-08-01T15:34:49;3.75;;;1.80;;
1545;SDS011;766;51.502;9.752;2023-08-01T15:37:17;7.00;;;2.10;;
1545;SDS011;766;51.502;9.752;2023-08-01T15:39:46;3.00;;;1.73;;
1545;SDS011;766;51.502;9.752;2023-08-01T15:42:14;2.40;;;1.60;;
1545;SDS011;766;51.502;9.752;2023-08-01T15:44:43;4.15;;;1.63;;
1545;SDS011;766;51.502;9.752;2023-08-01T15:47:12;3.42;;;1.65;;
1545;SDS011;766;51.502;9.752;2023-08-01T15:49:58;3.60;;;1.42;;
1545;SDS011;766;51.502;9.752;2023-08-01T15:52:31;4.22;;;1.70;;
1545;SDS011;766;51.502;9.752;2023-08-01T15:55:00;3.55;;;1.60;;
1545;SDS011;766;51.502;9.752;2023-08-01T15:57:28;5.25;;;1.67;;
1545;SDS011;766;51.502;9.752;2023-08-01T15:59:57;7.38;;;2.00;;
1545;SDS011;766;51.502;9.752;2023-08-01T16:02:27;4.50;;;2.00;;
1545;SDS011;766;51.502;9.752;2023-08-01T16:04:55;6.45;;;2.13;;